Terminal Aerodrome Forecast
Issued by NWS Green Bay, WI

Home | Current Version | Previous Version | Text Only | Print | Product List | Glossary Off
Versions: 1 2 3 4 5 6 7 8 9 10 11 12 13 14 15 16 17 18 19 20 21 22 23 24 25 26 27 28 29 30 31 32 33 34 35 36 37 38 39

000
FTUS43 KGRB 262300
TAFGRB
TAF
KGRB 262330Z 2700/2724 32004KT 5SM BR SCT012 BKN070
      TEMPO 2700/2704 BKN012
     FM270400 32008KT 6SM -SN SCT014 BKN025
     FM270900 32010G15KT 2SM -SHSN BKN014
     FM271200 32012G21KT P6SM -SN SCT025 BKN050
     FM271900 32009KT P6SM SCT050=

USA.gov is the U.S. government's official web portal to all federal, state and local government web resources and services.